Pagrindinis puslapis
METAR-TAF:

METAR-TAF

Oro uostai :

Sälen Trysil, Švedija

platuma: 61-09-32N, ilguma: 12-50-24E, Aukštis: 490 m

Dabartinis oras

Ataskaita buvo paskelbta 30 minutes, ne 12:20 UTC
Vėjas 2 kt iš Šiaurės Rytų
Temperatūra -10°C
Drėgmė 92%
Slėgis 991 hPa
Matomumas 10 km arba daugiau
sniegas

METAR: ESKS 021220Z AUTO 05002KT 9999 -SN SCT017/// OVC024/// M10/M11 Q0991 RESN

Laikas: 13:50 (12:50 UTC)


TAF: trūkstamas

Orai ataskaitas ir orų prognozės (METAR, TAF).

turimą stotys yra geltonos ir raudonos taškus žemėlapyje.

Perkelti pele per norėdami pamatyti stoties vardą.

Tada spustelėkite, norėdami matyti oro stebėjimo ir prognozės.

Norėdami pakeisti žemėlapį: spustelėkite ant žalios mygtukų su juodo kryžiaus žemyn,; žalią mygtuką su brūkšneliu, jei norite nutolinti; arba žalių rodyklių gretimoms žemėlapius.


METAR-TAF: